Time,TemperatureF,DewpointF,PressureIn,WindDirection,WindDirectionDegrees,WindSpeedMPH,WindSpeedGustMPH,Humidity,HourlyPrecipIn,Conditions,Clouds,dailyrainin,SoftwareType,DateUTC
2013-08-10 00:06:00,58.8,53.0,29.88,North,0,0.0,-999.0,81,0.00,,,0.00,open2300 v1.10,2013-08-10 07:06:00,
2013-08-10 00:21:00,58.8,53.0,29.88,North,0,0.0,-999.0,81,0.00,,,0.00,open2300 v1.10,2013-08-10 07:21:00,
2013-08-10 00:36:00,58.8,53.0,29.89,North,0,0.0,-999.0,81,0.00,,,0.00,open2300 v1.10,2013-08-10 07:36:00,
2013-08-10 00:51:00,58.8,53.0,29.88,North,0,0.0,-999.0,81,0.00,,,0.00,open2300 v1.10,2013-08-10 07:51:00,
2013-08-10 01:07:00,58.8,53.0,29.88,North,0,0.0,-999.0,81,0.00,,,0.00,open2300 v1.10,2013-08-10 08:07:00,
2013-08-10 01:21:00,58.8,53.0,29.88,North,0,0.0,-999.0,81,0.00,,,0.00,open2300 v1.10,2013-08-10 08:21:00,
2013-08-10 01:36:00,58.8,53.0,29.88,North,0,0.0,-999.0,81,0.00,,,0.00,open2300 v1.10,2013-08-10 08:36:00,
2013-08-10 01:51:00,58.8,53.0,29.88,North,0,0.0,-999.0,81,0.00,,,0.00,open2300 v1.10,2013-08-10 08:51:00,
2013-08-10 02:07:00,58.8,53.0,29.88,North,0,0.0,-999.0,81,0.00,,,0.00,open2300 v1.10,2013-08-10 09:07:00,
2013-08-10 02:21:00,58.8,53.3,29.88,North,0,0.0,-999.0,82,0.00,,,0.00,open2300 v1.10,2013-08-10 09:21:00,
2013-08-10 02:36:00,58.8,53.3,29.88,North,0,0.0,-999.0,82,0.00,,,0.00,open2300 v1.10,2013-08-10 09:36:00,
2013-08-10 02:51:00,58.8,53.3,29.88,North,0,0.0,-999.0,82,0.00,,,0.00,open2300 v1.10,2013-08-10 09:51:00,
2013-08-10 03:07:00,58.8,53.3,29.88,North,0,0.0,-999.0,82,0.00,,,0.00,open2300 v1.10,2013-08-10 10:07:00,
2013-08-10 03:21:00,58.8,53.3,29.88,North,0,0.0,-999.0,82,0.00,,,0.00,open2300 v1.10,2013-08-10 10:21:00,
2013-08-10 03:36:00,58.8,53.3,29.88,North,0,0.0,-999.0,82,0.00,,,0.00,open2300 v1.10,2013-08-10 10:36:00,
2013-08-10 03:51:00,58.8,53.7,29.87,North,0,0.0,-999.0,83,0.00,,,0.00,open2300 v1.10,2013-08-10 10:51:00,
2013-08-10 04:07:00,58.8,53.7,29.88,North,0,0.0,-999.0,83,0.00,,,0.00,open2300 v1.10,2013-08-10 11:07:00,
2013-08-10 04:21:00,58.8,53.7,29.88,North,0,0.0,-999.0,83,0.00,,,0.00,open2300 v1.10,2013-08-10 11:21:00,
2013-08-10 04:36:00,58.8,53.7,29.88,North,0,0.0,-999.0,83,0.00,,,0.00,open2300 v1.10,2013-08-10 11:36:00,
2013-08-10 04:51:00,58.6,53.2,29.87,North,0,0.0,-999.0,82,0.00,,,0.00,open2300 v1.10,2013-08-10 11:51:00,
2013-08-10 05:07:00,58.6,53.2,29.87,North,0,0.0,-999.0,82,0.00,,,0.00,open2300 v1.10,2013-08-10 12:07:00,
2013-08-10 05:21:00,58.6,53.2,29.88,North,0,0.0,-999.0,82,0.00,,,0.00,open2300 v1.10,2013-08-10 12:21:00,
2013-08-10 05:36:00,58.6,53.2,29.88,North,0,0.0,-999.0,82,0.00,,,0.00,open2300 v1.10,2013-08-10 12:36:00,
2013-08-10 05:51:00,58.6,53.5,29.88,North,0,0.0,-999.0,83,0.00,,,0.00,open2300 v1.10,2013-08-10 12:51:00,
2013-08-10 06:07:00,58.6,53.5,29.88,North,0,0.0,-999.0,83,0.00,,,0.00,open2300 v1.10,2013-08-10 13:07:00,
2013-08-10 06:21:00,58.8,53.7,29.88,North,0,0.0,-999.0,83,0.00,,,0.00,open2300 v1.10,2013-08-10 13:21:00,
2013-08-10 06:36:00,58.8,53.7,29.89,North,0,0.0,-999.0,83,0.00,,,0.00,open2300 v1.10,2013-08-10 13:36:00,
2013-08-10 06:51:00,58.3,53.1,29.89,North,0,0.0,-999.0,83,0.00,,,0.00,open2300 v1.10,2013-08-10 13:51:00,
2013-08-10 07:07:00,58.5,53.3,29.89,North,0,0.0,-999.0,83,0.00,,,0.00,open2300 v1.10,2013-08-10 14:07:00,
2013-08-10 07:21:00,58.6,53.5,29.89,North,0,0.0,-999.0,83,0.00,,,0.00,open2300 v1.10,2013-08-10 14:21:00,
2013-08-10 07:36:00,58.6,53.5,29.90,North,0,0.0,-999.0,83,0.00,,,0.00,open2300 v1.10,2013-08-10 14:36:00,
2013-08-10 07:51:00,58.8,53.7,29.90,North,0,0.0,-999.0,83,0.00,,,0.00,open2300 v1.10,2013-08-10 14:51:00,
2013-08-10 08:06:00,58.8,53.7,29.90,North,0,0.0,-999.0,83,0.00,,,0.00,open2300 v1.10,2013-08-10 15:06:00,
2013-08-10 08:21:00,58.8,53.3,29.90,North,0,0.0,-999.0,82,0.00,,,0.00,open2300 v1.10,2013-08-10 15:21:00,
2013-08-10 08:36:00,59.4,53.9,29.91,North,0,0.0,-999.0,82,0.00,,,0.00,open2300 v1.10,2013-08-10 15:36:00,
2013-08-10 08:51:00,59.5,54.1,29.91,North,0,0.0,-999.0,82,0.00,,,0.00,open2300 v1.10,2013-08-10 15:51:00,
2013-08-10 09:06:00,60.1,54.3,29.91,North,0,0.0,-999.0,81,0.00,,,0.00,open2300 v1.10,2013-08-10 16:06:00,
2013-08-10 09:21:00,60.4,54.6,29.91,North,0,0.0,-999.0,81,0.00,,,0.00,open2300 v1.10,2013-08-10 16:21:00,
2013-08-10 09:36:00,60.6,54.8,29.92,North,0,0.0,-999.0,81,0.00,,,0.00,open2300 v1.10,2013-08-10 16:36:00,
2013-08-10 09:51:00,61.3,55.2,29.92,North,0,0.0,-999.0,80,0.00,,,0.00,open2300 v1.10,2013-08-10 16:51:00,
2013-08-10 10:06:00,61.7,55.1,29.92,North,0,0.0,-999.0,79,0.00,,,0.00,open2300 v1.10,2013-08-10 17:06:00,
2013-08-10 10:21:00,62.4,55.8,29.92,North,0,0.0,-999.0,79,0.00,,,0.00,open2300 v1.10,2013-08-10 17:21:00,
2013-08-10 10:36:00,63.0,55.9,29.92,North,0,0.0,-999.0,78,0.00,,,0.00,open2300 v1.10,2013-08-10 17:36:00,
2013-08-10 10:51:00,63.5,56.1,29.93,North,0,0.0,-999.0,77,0.00,,,0.00,open2300 v1.10,2013-08-10 17:51:00,
2013-08-10 11:06:00,64.2,56.5,29.93,North,0,0.0,-999.0,76,0.00,,,0.00,open2300 v1.10,2013-08-10 18:06:00,
2013-08-10 11:21:00,65.3,57.5,29.93,North,0,0.0,-999.0,76,0.00,,,0.00,open2300 v1.10,2013-08-10 18:21:00,
2013-08-10 11:36:00,66.0,57.5,29.93,North,0,0.0,-999.0,74,0.00,,,0.00,open2300 v1.10,2013-08-10 18:36:00,
2013-08-10 11:51:00,66.0,57.1,29.93,North,0,0.0,-999.0,73,0.00,,,0.00,open2300 v1.10,2013-08-10 18:51:00,
2013-08-10 12:06:00,66.0,57.1,29.93,North,0,0.0,-999.0,73,0.00,,,0.00,open2300 v1.10,2013-08-10 19:06:00,
2013-08-10 12:21:00,64.8,55.9,29.92,North,0,0.0,-999.0,73,0.00,,,0.00,open2300 v1.10,2013-08-10 19:21:00,
2013-08-10 12:36:00,64.2,55.4,29.92,North,0,0.0,-999.0,73,0.00,,,0.00,open2300 v1.10,2013-08-10 19:36:00,
2013-08-10 12:51:00,64.2,55.4,29.93,North,0,0.0,-999.0,73,0.00,,,0.00,open2300 v1.10,2013-08-10 19:51:00,
2013-08-10 13:06:00,64.0,55.2,29.93,North,0,0.0,-999.0,73,0.00,,,0.00,open2300 v1.10,2013-08-10 20:06:00,
2013-08-10 13:21:00,64.2,55.4,29.92,North,0,0.0,-999.0,73,0.00,,,0.00,open2300 v1.10,2013-08-10 20:21:00,
2013-08-10 13:36:00,64.9,56.1,29.92,North,0,0.0,-999.0,73,0.00,,,0.00,open2300 v1.10,2013-08-10 20:36:00,
2013-08-10 13:51:00,64.8,55.5,29.92,North,0,0.0,-999.0,72,0.00,,,0.00,open2300 v1.10,2013-08-10 20:51:00,
2013-08-10 14:06:00,64.2,55.0,29.91,North,0,0.0,-999.0,72,0.00,,,0.00,open2300 v1.10,2013-08-10 21:06:00,
2013-08-10 14:21:00,64.0,55.2,29.91,North,0,0.0,-999.0,73,0.00,,,0.00,open2300 v1.10,2013-08-10 21:21:00,
2013-08-10 14:36:00,64.0,55.2,29.91,North,0,0.0,-999.0,73,0.00,,,0.00,open2300 v1.10,2013-08-10 21:36:00,
2013-08-10 14:51:00,63.7,54.9,29.91,North,0,0.0,-999.0,73,0.00,,,0.00,open2300 v1.10,2013-08-10 21:51:00,
2013-08-10 15:06:00,63.7,54.9,29.91,North,0,0.0,-999.0,73,0.00,,,0.00,open2300 v1.10,2013-08-10 22:06:00,
2013-08-10 15:21:00,63.7,54.9,29.91,North,0,0.0,-999.0,73,0.00,,,0.00,open2300 v1.10,2013-08-10 22:21:00,
2013-08-10 15:36:00,63.7,54.9,29.90,North,0,0.0,-999.0,73,0.00,,,0.00,open2300 v1.10,2013-08-10 22:36:00,
2013-08-10 15:51:00,64.0,55.2,29.90,North,0,0.0,-999.0,73,0.00,,,0.00,open2300 v1.10,2013-08-10 22:51:00,
2013-08-10 16:06:00,64.0,55.2,29.90,North,0,0.0,-999.0,73,0.00,,,0.00,open2300 v1.10,2013-08-10 23:06:00,
2013-08-10 16:21:00,64.6,55.7,29.89,North,0,0.0,-999.0,73,0.00,,,0.00,open2300 v1.10,2013-08-10 23:21:00,
2013-08-10 16:36:00,64.9,55.7,29.89,North,0,0.0,-999.0,72,0.00,,,0.00,open2300 v1.10,2013-08-10 23:36:00,
2013-08-10 16:51:00,65.1,55.9,29.89,North,0,0.0,-999.0,72,0.00,,,0.00,open2300 v1.10,2013-08-10 23:51:00,
2013-08-10 17:06:00,65.5,55.8,29.89,North,0,0.0,-999.0,71,0.00,,,0.00,open2300 v1.10,2013-08-11 00:06:00,
2013-08-10 17:21:00,65.5,56.2,29.89,North,0,0.0,-999.0,72,0.00,,,0.00,open2300 v1.10,2013-08-11 00:21:00,
2013-08-10 17:36:00,65.3,56.0,29.89,North,0,0.0,-999.0,72,0.00,,,0.00,open2300 v1.10,2013-08-11 00:36:00,
2013-08-10 17:51:00,64.8,55.9,29.89,North,0,0.0,-999.0,73,0.00,,,0.00,open2300 v1.10,2013-08-11 00:51:00,
2013-08-10 18:06:00,64.0,55.6,29.89,North,0,0.0,-999.0,74,0.00,,,0.00,open2300 v1.10,2013-08-11 01:06:00,
2013-08-10 18:21:00,63.5,55.4,29.89,North,0,0.0,-999.0,75,0.00,,,0.00,open2300 v1.10,2013-08-11 01:21:00,
2013-08-10 18:36:00,63.1,55.4,29.88,North,0,0.0,-999.0,76,0.00,,,0.00,open2300 v1.10,2013-08-11 01:36:00,
2013-08-10 18:51:00,62.4,55.1,29.88,North,0,0.0,-999.0,77,0.00,,,0.00,open2300 v1.10,2013-08-11 01:51:00,
2013-08-10 19:06:00,62.2,55.3,29.88,North,0,0.0,-999.0,78,0.00,,,0.00,open2300 v1.10,2013-08-11 02:06:00,
2013-08-10 19:21:00,62.1,55.5,29.88,North,0,0.0,-999.0,79,0.00,,,0.00,open2300 v1.10,2013-08-11 02:21:00,
2013-08-10 19:36:00,61.7,55.1,29.88,North,0,0.0,-999.0,79,0.00,,,0.00,open2300 v1.10,2013-08-11 02:36:00,
2013-08-10 19:51:00,61.5,55.3,29.88,North,0,0.0,-999.0,80,0.00,,,0.00,open2300 v1.10,2013-08-11 02:51:00,
2013-08-10 20:06:00,61.0,54.8,29.89,North,0,0.0,-999.0,80,0.00,,,0.00,open2300 v1.10,2013-08-11 03:06:00,
2013-08-10 20:21:00,60.6,54.8,29.89,North,0,0.0,-999.0,81,0.00,,,0.00,open2300 v1.10,2013-08-11 03:21:00,
2013-08-10 20:37:00,60.6,55.2,29.89,North,0,0.0,-999.0,82,0.00,,,0.00,open2300 v1.10,2013-08-11 03:37:00,
2013-08-10 21:06:00,60.4,55.3,29.89,North,0,0.0,-999.0,83,0.00,,,0.00,open2300 v1.10,2013-08-11 04:06:00,
2013-08-10 21:21:00,60.3,55.1,29.90,North,0,0.0,-999.0,83,0.00,,,0.00,open2300 v1.10,2013-08-11 04:21:00,
2013-08-10 21:36:00,59.9,54.8,29.90,North,0,0.0,-999.0,83,0.00,,,0.00,open2300 v1.10,2013-08-11 04:36:00,
2013-08-10 21:51:00,59.7,54.6,29.90,North,0,0.0,-999.0,83,0.00,,,0.00,open2300 v1.10,2013-08-11 04:51:00,
2013-08-10 22:06:00,59.5,54.7,29.90,North,0,0.0,-999.0,84,0.00,,,0.00,open2300 v1.10,2013-08-11 05:06:00,
2013-08-10 22:21:00,59.4,54.5,29.90,North,0,0.0,-999.0,84,0.00,,,0.00,open2300 v1.10,2013-08-11 05:21:00,
2013-08-10 22:36:00,59.4,54.5,29.90,North,0,0.0,-999.0,84,0.00,,,0.00,open2300 v1.10,2013-08-11 05:36:00,
2013-08-10 22:51:00,59.4,54.5,29.90,North,0,0.0,-999.0,84,0.00,,,0.00,open2300 v1.10,2013-08-11 05:51:00,
2013-08-10 23:06:00,59.0,54.2,29.90,North,0,0.0,-999.0,84,0.00,,,0.00,open2300 v1.10,2013-08-11 06:06:00,
2013-08-10 23:21:00,58.8,54.0,29.91,North,0,0.0,-999.0,84,0.00,,,0.00,open2300 v1.10,2013-08-11 06:21:00,
2013-08-10 23:36:00,58.8,54.0,29.90,North,0,0.0,-999.0,84,0.00,,,0.00,open2300 v1.10,2013-08-11 06:36:00,
2013-08-10 23:51:00,58.8,54.3,29.90,North,0,0.0,-999.0,85,0.00,,,0.00,open2300 v1.10,2013-08-11 06:51:00,